sensor_id;sensor_type;location;lat;lon;timestamp;pressure;altitude;pressure_sealevel;temperature;humidity
5380;BME280;2713;42.680;23.310;2023-05-09T00:01:44;95354.97;;;16.95;68.14
5380;BME280;2713;42.680;23.310;2023-05-09T00:04:11;95359.38;;;17.01;68.06
5380;BME280;2713;42.680;23.310;2023-05-09T00:06:38;95358.56;;;17.00;68.18
5380;BME280;2713;42.680;23.310;2023-05-09T00:09:04;95354.69;;;17.03;67.65
5380;BME280;2713;42.680;23.310;2023-05-09T00:11:33;95354.06;;;17.07;67.74
5380;BME280;2713;42.680;23.310;2023-05-09T00:14:00;95350.63;;;17.07;67.82
5380;BME280;2713;42.680;23.310;2023-05-09T00:16:27;95348.22;;;17.05;67.66
5380;BME280;2713;42.680;23.310;2023-05-09T00:18:57;95348.91;;;16.94;68.65
5380;BME280;2713;42.680;23.310;2023-05-09T00:21:24;95349.72;;;16.95;68.55
5380;BME280;2713;42.680;23.310;2023-05-09T00:23:51;95348.22;;;17.05;67.54
5380;BME280;2713;42.680;23.310;2023-05-09T00:26:17;95348.59;;;17.09;67.62
5380;BME280;2713;42.680;23.310;2023-05-09T00:28:46;95339.63;;;16.92;68.06
5380;BME280;2713;42.680;23.310;2023-05-09T00:31:13;95344.03;;;16.98;67.90
5380;BME280;2713;42.680;23.310;2023-05-09T00:33:40;95336.16;;;16.98;67.96
5380;BME280;2713;42.680;23.310;2023-05-09T00:36:07;95333.09;;;17.01;68.07
5380;BME280;2713;42.680;23.310;2023-05-09T00:38:34;95334.34;;;16.98;68.08
5380;BME280;2713;42.680;23.310;2023-05-09T00:41:01;95333.09;;;17.01;67.91
5380;BME280;2713;42.680;23.310;2023-05-09T00:43:28;95334.97;;;16.94;67.93
5380;BME280;2713;42.680;23.310;2023-05-09T00:45:57;95335.69;;;16.69;68.58
5380;BME280;2713;42.680;23.310;2023-05-09T00:48:24;95337.66;;;16.81;67.95
5380;BME280;2713;42.680;23.310;2023-05-09T00:50:51;95333.91;;;16.63;68.86
5380;BME280;2713;42.680;23.310;2023-05-09T00:53:18;95339.59;;;16.47;68.88
5380;BME280;2713;42.680;23.310;2023-05-09T00:55:45;95328.56;;;16.32;69.55
5380;BME280;2713;42.680;23.310;2023-05-09T00:58:12;95333.34;;;16.48;69.30
5380;BME280;2713;42.680;23.310;2023-05-09T01:00:39;95335.34;;;16.59;69.05
5380;BME280;2713;42.680;23.310;2023-05-09T01:03:07;95339.94;;;16.70;68.54
5380;BME280;2713;42.680;23.310;2023-05-09T01:05:39;95333.69;;;16.65;68.45
5380;BME280;2713;42.680;23.310;2023-05-09T01:08:13;95335.53;;;16.51;69.12
5380;BME280;2713;42.680;23.310;2023-05-09T01:10:49;95332.50;;;16.54;68.91
5380;BME280;2713;42.680;23.310;2023-05-09T01:13:25;95329.09;;;16.60;68.22
5380;BME280;2713;42.680;23.310;2023-05-09T01:15:53;95328.31;;;16.47;68.93
5380;BME280;2713;42.680;23.310;2023-05-09T01:18:32;95326.91;;;16.44;69.02
5380;BME280;2713;42.680;23.310;2023-05-09T01:21:04;95328.50;;;16.45;69.16
5380;BME280;2713;42.680;23.310;2023-05-09T01:23:52;95322.59;;;16.12;70.00
5380;BME280;2713;42.680;23.310;2023-05-09T01:26:31;95327.50;;;15.95;71.16
5380;BME280;2713;42.680;23.310;2023-05-09T01:29:19;95328.31;;;15.96;71.08
5380;BME280;2713;42.680;23.310;2023-05-09T01:34:28;95325.06;;;15.87;71.22
5380;BME280;2713;42.680;23.310;2023-05-09T01:36:58;95320.81;;;15.93;71.05
5380;BME280;2713;42.680;23.310;2023-05-09T01:39:26;95332.31;;;16.05;70.20
5380;BME280;2713;42.680;23.310;2023-05-09T01:41:55;95330.72;;;15.91;70.93
5380;BME280;2713;42.680;23.310;2023-05-09T01:44:25;95327.63;;;16.07;70.61
5380;BME280;2713;42.680;23.310;2023-05-09T01:46:56;95328.63;;;16.19;69.85
5380;BME280;2713;42.680;23.310;2023-05-09T01:49:25;95336.53;;;16.06;70.12
5380;BME280;2713;42.680;23.310;2023-05-09T01:51:55;95342.66;;;15.73;71.34
5380;BME280;2713;42.680;23.310;2023-05-09T01:54:23;95327.53;;;15.62;71.83
5380;BME280;2713;42.680;23.310;2023-05-09T01:56:52;95343.88;;;15.64;71.35
5380;BME280;2713;42.680;23.310;2023-05-09T01:59:20;95338.59;;;15.32;72.95
5380;BME280;2713;42.680;23.310;2023-05-09T02:01:50;95340.63;;;15.23;73.40
5380;BME280;2713;42.680;23.310;2023-05-09T02:04:19;95342.66;;;15.34;73.18
5380;BME280;2713;42.680;23.310;2023-05-09T02:06:48;95340.41;;;15.18;73.94
5380;BME280;2713;42.680;23.310;2023-05-09T02:09:17;95339.59;;;15.04;74.21
5380;BME280;2713;42.680;23.310;2023-05-09T02:11:44;95336.38;;;15.09;73.96
5380;BME280;2713;42.680;23.310;2023-05-09T02:14:11;95341.22;;;14.99;74.94
5380;BME280;2713;42.680;23.310;2023-05-09T02:16:38;95340.41;;;15.24;74.25
5380;BME280;2713;42.680;23.310;2023-05-09T02:19:07;95340.66;;;15.56;73.03
5380;BME280;2713;42.680;23.310;2023-05-09T02:21:33;95339.44;;;15.65;72.08
5380;BME280;2713;42.680;23.310;2023-05-09T02:24:00;95335.19;;;15.44;72.88
5380;BME280;2713;42.680;23.310;2023-05-09T02:26:27;95336.78;;;15.45;73.04
5380;BME280;2713;42.680;23.310;2023-05-09T02:28:55;95334.78;;;15.47;73.06
5380;BME280;2713;42.680;23.310;2023-05-09T02:31:24;95341.66;;;15.61;72.75
5380;BME280;2713;42.680;23.310;2023-05-09T02:33:53;95338.63;;;15.78;71.87
5380;BME280;2713;42.680;23.310;2023-05-09T02:36:22;95339.22;;;15.66;71.74
5380;BME280;2713;42.680;23.310;2023-05-09T02:38:50;95339.81;;;15.82;71.31
5380;BME280;2713;42.680;23.310;2023-05-09T02:41:17;95338.56;;;15.97;70.82
5380;BME280;2713;42.680;23.310;2023-05-09T02:43:44;95339.16;;;16.12;70.70
5380;BME280;2713;42.680;23.310;2023-05-09T02:46:10;95333.91;;;16.12;70.36
5380;BME280;2713;42.680;23.310;2023-05-09T02:48:37;95336.91;;;16.16;70.03
5380;BME280;2713;42.680;23.310;2023-05-09T02:51:04;95333.44;;;16.29;70.20
5380;BME280;2713;42.680;23.310;2023-05-09T02:53:33;95346.31;;;16.30;69.63
5380;BME280;2713;42.680;23.310;2023-05-09T02:55:59;95339.50;;;16.29;69.84
5380;BME280;2713;42.680;23.310;2023-05-09T02:58:26;95341.75;;;16.12;70.18
5380;BME280;2713;42.680;23.310;2023-05-09T03:00:53;95331.47;;;16.11;70.33
5380;BME280;2713;42.680;23.310;2023-05-09T03:03:20;95338.78;;;16.02;70.86
5380;BME280;2713;42.680;23.310;2023-05-09T03:05:48;95345.00;;;16.08;70.49
5380;BME280;2713;42.680;23.310;2023-05-09T03:08:15;95345.19;;;16.13;70.82
5380;BME280;2713;42.680;23.310;2023-05-09T03:10:44;95348.59;;;16.13;70.86
5380;BME280;2713;42.680;23.310;2023-05-09T03:13:12;95341.78;;;16.06;70.87
5380;BME280;2713;42.680;23.310;2023-05-09T03:15:39;95350.25;;;16.08;71.24
5380;BME280;2713;42.680;23.310;2023-05-09T03:18:07;95353.28;;;15.98;71.55
5380;BME280;2713;42.680;23.310;2023-05-09T03:20:34;95361.34;;;15.97;71.65
5380;BME280;2713;42.680;23.310;2023-05-09T03:23:00;95359.31;;;16.12;71.04
5380;BME280;2713;42.680;23.310;2023-05-09T03:25:27;95374.25;;;16.11;71.39
5380;BME280;2713;42.680;23.310;2023-05-09T03:27:56;95380.75;;;15.96;72.17
5380;BME280;2713;42.680;23.310;2023-05-09T03:30:23;95378.13;;;15.76;73.55
5380;BME280;2713;42.680;23.310;2023-05-09T03:32:51;95375.88;;;15.93;73.13
5380;BME280;2713;42.680;23.310;2023-05-09T03:35:18;95379.53;;;15.85;73.56
5380;BME280;2713;42.680;23.310;2023-05-09T03:37:45;95370.88;;;15.58;74.29
5380;BME280;2713;42.680;23.310;2023-05-09T03:40:11;95382.94;;;15.27;76.59
5380;BME280;2713;42.680;23.310;2023-05-09T03:42:45;95386.53;;;15.19;77.11
5380;BME280;2713;42.680;23.310;2023-05-09T03:45:13;95383.06;;;14.86;77.24
5380;BME280;2713;42.680;23.310;2023-05-09T03:47:41;95383.78;;;14.66;78.23
5380;BME280;2713;42.680;23.310;2023-05-09T03:50:09;95377.59;;;14.81;77.79
5380;BME280;2713;42.680;23.310;2023-05-09T03:52:36;95390.25;;;14.70;78.36
5380;BME280;2713;42.680;23.310;2023-05-09T03:55:04;95391.00;;;14.51;78.62
5380;BME280;2713;42.680;23.310;2023-05-09T03:57:34;95386.81;;;14.29;80.22
5380;BME280;2713;42.680;23.310;2023-05-09T04:00:00;95386.63;;;14.24;80.74
5380;BME280;2713;42.680;23.310;2023-05-09T04:02:40;95391.94;;;14.37;80.39
5380;BME280;2713;42.680;23.310;2023-05-09T04:05:13;95391.47;;;14.27;80.34
5380;BME280;2713;42.680;23.310;2023-05-09T04:07:41;95385.72;;;14.38;80.25
5380;BME280;2713;42.680;23.310;2023-05-09T04:10:09;95394.50;;;14.31;80.21
5380;BME280;2713;42.680;23.310;2023-05-09T04:12:36;95384.00;;;14.24;80.81
5380;BME280;2713;42.680;23.310;2023-05-09T04:15:04;95385.34;;;14.48;79.90
5380;BME280;2713;42.680;23.310;2023-05-09T04:17:31;95390.22;;;14.64;79.25
5380;BME280;2713;42.680;23.310;2023-05-09T04:20:00;95378.97;;;14.63;78.82
5380;BME280;2713;42.680;23.310;2023-05-09T04:22:26;95392.50;;;14.80;77.92
5380;BME280;2713;42.680;23.310;2023-05-09T04:24:53;95396.28;;;14.64;79.28
5380;BME280;2713;42.680;23.310;2023-05-09T04:27:20;95395.09;;;14.73;78.61
5380;BME280;2713;42.680;23.310;2023-05-09T04:29:48;95401.47;;;14.51;79.27
5380;BME280;2713;42.680;23.310;2023-05-09T04:32:15;95391.44;;;14.61;79.25
5380;BME280;2713;42.680;23.310;2023-05-09T04:34:42;95392.97;;;14.43;79.60
5380;BME280;2713;42.680;23.310;2023-05-09T04:37:17;95399.16;;;14.35;80.03
5380;BME280;2713;42.680;23.310;2023-05-09T04:39:45;95400.66;;;14.51;79.54
5380;BME280;2713;42.680;23.310;2023-05-09T04:42:21;95404.88;;;14.52;80.19
5380;BME280;2713;42.680;23.310;2023-05-09T04:44:47;95401.13;;;14.67;79.20
5380;BME280;2713;42.680;23.310;2023-05-09T04:47:15;95403.13;;;14.65;79.31
5380;BME280;2713;42.680;23.310;2023-05-09T04:49:41;95396.34;;;14.84;79.06
5380;BME280;2713;42.680;23.310;2023-05-09T04:52:08;95404.81;;;14.93;78.38
5380;BME280;2713;42.680;23.310;2023-05-09T04:54:36;95402.66;;;15.09;78.06
5380;BME280;2713;42.680;23.310;2023-05-09T04:57:04;95402.25;;;15.12;77.28
5380;BME280;2713;42.680;23.310;2023-05-09T04:59:33;95406.28;;;15.28;76.75
5380;BME280;2713;42.680;23.310;2023-05-09T05:02:00;95402.69;;;15.42;76.88
5380;BME280;2713;42.680;23.310;2023-05-09T05:04:27;95409.13;;;15.40;76.90
5380;BME280;2713;42.680;23.310;2023-05-09T05:06:54;95400.91;;;15.49;76.89
5380;BME280;2713;42.680;23.310;2023-05-09T05:09:21;95397.28;;;15.57;75.64
5380;BME280;2713;42.680;23.310;2023-05-09T05:11:51;95398.84;;;15.45;75.83
5380;BME280;2713;42.680;23.310;2023-05-09T05:14:18;95403.13;;;15.72;74.66
5380;BME280;2713;42.680;23.310;2023-05-09T05:16:45;95400.50;;;15.85;74.13
5380;BME280;2713;42.680;23.310;2023-05-09T05:19:12;95400.50;;;15.98;72.91
5380;BME280;2713;42.680;23.310;2023-05-09T05:21:40;95403.31;;;15.84;73.44
5380;BME280;2713;42.680;23.310;2023-05-09T05:24:07;95409.34;;;16.04;71.71
5380;BME280;2713;42.680;23.310;2023-05-09T05:26:34;95404.94;;;15.98;71.68
5380;BME280;2713;42.680;23.310;2023-05-09T05:29:02;95408.56;;;15.77;70.55
5380;BME280;2713;42.680;23.310;2023-05-09T05:31:29;95396.84;;;15.40;71.88
5380;BME280;2713;42.680;23.310;2023-05-09T05:33:56;95387.13;;;15.21;72.67
5380;BME280;2713;42.680;23.310;2023-05-09T05:36:23;95410.72;;;15.21;71.93
5380;BME280;2713;42.680;23.310;2023-05-09T05:38:50;95415.56;;;16.29;69.26
5380;BME280;2713;42.680;23.310;2023-05-09T05:41:17;95409.97;;;15.66;70.35
5380;BME280;2713;42.680;23.310;2023-05-09T05:43:44;95415.94;;;15.21;72.34
5380;BME280;2713;42.680;23.310;2023-05-09T05:46:13;95418.97;;;15.18;72.29
5380;BME280;2713;42.680;23.310;2023-05-09T05:48:40;95415.75;;;15.16;72.90
5380;BME280;2713;42.680;23.310;2023-05-09T05:51:07;95414.13;;;15.15;72.87
5380;BME280;2713;42.680;23.310;2023-05-09T05:53:34;95412.72;;;15.06;72.48
5380;BME280;2713;42.680;23.310;2023-05-09T05:56:01;95415.75;;;15.22;72.42
5380;BME280;2713;42.680;23.310;2023-05-09T05:58:30;95417.44;;;15.50;71.59
5380;BME280;2713;42.680;23.310;2023-05-09T06:00:57;95425.91;;;16.04;70.03
5380;BME280;2713;42.680;23.310;2023-05-09T06:03:25;95416.25;;;15.79;70.37
5380;BME280;2713;42.680;23.310;2023-05-09T06:05:58;95418.00;;;16.11;70.11
5380;BME280;2713;42.680;23.310;2023-05-09T06:08:25;95413.75;;;16.30;69.05
5380;BME280;2713;42.680;23.310;2023-05-09T06:10:52;95418.94;;;16.49;67.99
5380;BME280;2713;42.680;23.310;2023-05-09T06:13:19;95420.53;;;16.63;66.45
5380;BME280;2713;42.680;23.310;2023-05-09T06:15:54;95419.81;;;16.17;66.71
5380;BME280;2713;42.680;23.310;2023-05-09T06:18:21;95414.28;;;16.45;66.24
5380;BME280;2713;42.680;23.310;2023-05-09T06:20:49;95419.66;;;15.79;66.65
5380;BME280;2713;42.680;23.310;2023-05-09T06:23:18;95408.72;;;15.23;67.95
5380;BME280;2713;42.680;23.310;2023-05-09T06:25:46;95409.88;;;15.14;69.89
5380;BME280;2713;42.680;23.310;2023-05-09T06:28:13;95416.00;;;15.34;69.51
5380;BME280;2713;42.680;23.310;2023-05-09T06:30:45;95415.41;;;15.91;72.21
5380;BME280;2713;42.680;23.310;2023-05-09T06:33:12;95421.47;;;16.05;66.75
5380;BME280;2713;42.680;23.310;2023-05-09T06:35:39;95426.50;;;16.19;66.21
5380;BME280;2713;42.680;23.310;2023-05-09T06:38:08;95422.50;;;15.64;67.37
5380;BME280;2713;42.680;23.310;2023-05-09T06:40:35;95421.59;;;15.24;69.15
5380;BME280;2713;42.680;23.310;2023-05-09T06:43:02;95419.31;;;14.89;71.40
5380;BME280;2713;42.680;23.310;2023-05-09T06:45:29;95424.84;;;15.20;69.22
5380;BME280;2713;42.680;23.310;2023-05-09T06:47:56;95417.09;;;14.86;71.25
5380;BME280;2713;42.680;23.310;2023-05-09T06:50:23;95419.53;;;15.07;70.41
5380;BME280;2713;42.680;23.310;2023-05-09T06:52:50;95410.69;;;15.08;71.14
5380;BME280;2713;42.680;23.310;2023-05-09T06:55:18;95418.91;;;14.92;72.13
5380;BME280;2713;42.680;23.310;2023-05-09T06:57:45;95410.81;;;14.87;71.82
5380;BME280;2713;42.680;23.310;2023-05-09T07:00:13;95414.13;;;15.15;71.38
5380;BME280;2713;42.680;23.310;2023-05-09T07:02:40;95411.13;;;15.24;70.84
5380;BME280;2713;42.680;23.310;2023-05-09T07:05:07;95412.31;;;15.02;70.69
5380;BME280;2713;42.680;23.310;2023-05-09T07:07:35;95408.06;;;15.01;71.17
5380;BME280;2713;42.680;23.310;2023-05-09T07:10:02;95397.97;;;14.85;71.79
5380;BME280;2713;42.680;23.310;2023-05-09T07:12:31;95410.53;;;15.22;70.53
5380;BME280;2713;42.680;23.310;2023-05-09T07:14:58;95409.31;;;15.45;69.71
5380;BME280;2713;42.680;23.310;2023-05-09T07:17:25;95386.97;;;15.42;69.65
5380;BME280;2713;42.680;23.310;2023-05-09T07:19:51;95409.72;;;15.42;69.55
5380;BME280;2713;42.680;23.310;2023-05-09T07:22:18;95413.81;;;15.51;68.86
5380;BME280;2713;42.680;23.310;2023-05-09T07:24:45;95413.22;;;15.75;68.15
5380;BME280;2713;42.680;23.310;2023-05-09T07:27:12;95423.88;;;15.80;68.24
5380;BME280;2713;42.680;23.310;2023-05-09T07:29:40;95380.09;;;15.28;68.79
5380;BME280;2713;42.680;23.310;2023-05-09T07:32:07;95414.00;;;15.56;68.59
5380;BME280;2713;42.680;23.310;2023-05-09T07:34:34;95422.97;;;15.14;68.90
5380;BME280;2713;42.680;23.310;2023-05-09T07:37:01;95413.31;;;15.14;70.13
5380;BME280;2713;42.680;23.310;2023-05-09T07:39:28;95418.63;;;15.34;68.61
5380;BME280;2713;42.680;23.310;2023-05-09T07:41:55;95417.38;;;15.23;68.80
5380;BME280;2713;42.680;23.310;2023-05-09T07:44:21;95397.25;;;15.31;67.68
5380;BME280;2713;42.680;23.310;2023-05-09T07:46:50;95427.66;;;15.45;68.01
5380;BME280;2713;42.680;23.310;2023-05-09T07:49:19;95421.19;;;15.28;68.47
5380;BME280;2713;42.680;23.310;2023-05-09T07:51:45;95422.88;;;15.48;68.57
5380;BME280;2713;42.680;23.310;2023-05-09T07:54:12;95418.25;;;15.57;67.64
5380;BME280;2713;42.680;23.310;2023-05-09T07:56:39;95422.69;;;15.50;68.21
5380;BME280;2713;42.680;23.310;2023-05-09T07:59:06;95416.84;;;15.67;68.58
5380;BME280;2713;42.680;23.310;2023-05-09T08:01:33;95418.47;;;15.75;67.64
5380;BME280;2713;42.680;23.310;2023-05-09T08:04:01;95411.78;;;16.05;67.13
5380;BME280;2713;42.680;23.310;2023-05-09T08:06:29;95409.56;;;16.02;65.97
5380;BME280;2713;42.680;23.310;2023-05-09T08:08:56;95414.19;;;16.07;65.33
5380;BME280;2713;42.680;23.310;2023-05-09T08:11:23;95418.41;;;16.14;65.60
5380;BME280;2713;42.680;23.310;2023-05-09T08:13:50;95421.84;;;16.15;65.56
5380;BME280;2713;42.680;23.310;2023-05-09T08:16:16;95405.09;;;16.22;65.21
5380;BME280;2713;42.680;23.310;2023-05-09T08:18:44;95414.94;;;16.27;65.05
5380;BME280;2713;42.680;23.310;2023-05-09T08:21:12;95418.41;;;16.08;66.34
5380;BME280;2713;42.680;23.310;2023-05-09T08:23:39;95419.81;;;16.10;65.90
5380;BME280;2713;42.680;23.310;2023-05-09T08:26:08;95416.72;;;16.46;65.23
5380;BME280;2713;42.680;23.310;2023-05-09T08:28:34;95415.81;;;16.79;62.89
5380;BME280;2713;42.680;23.310;2023-05-09T08:31:01;95425.91;;;17.51;61.78
5380;BME280;2713;42.680;23.310;2023-05-09T08:33:28;95418.63;;;17.59;61.03
5380;BME280;2713;42.680;23.310;2023-05-09T08:35:55;95420.03;;;18.11;59.62
5380;BME280;2713;42.680;23.310;2023-05-09T08:38:23;95410.97;;;18.44;58.88
5380;BME280;2713;42.680;23.310;2023-05-09T08:40:50;95424.50;;;19.02;56.55
5380;BME280;2713;42.680;23.310;2023-05-09T08:43:19;95412.00;;;18.24;57.78
5380;BME280;2713;42.680;23.310;2023-05-09T08:45:50;95424.25;;;18.12;57.05
5380;BME280;2713;42.680;23.310;2023-05-09T08:48:17;95418.06;;;16.75;60.59
5380;BME280;2713;42.680;23.310;2023-05-09T08:50:44;95408.66;;;16.41;63.26
5380;BME280;2713;42.680;23.310;2023-05-09T08:53:11;95406.91;;;16.15;65.11
5380;BME280;2713;42.680;23.310;2023-05-09T08:55:44;95404.19;;;16.48;64.84
5380;BME280;2713;42.680;23.310;2023-05-09T08:58:12;95405.59;;;16.51;63.95
5380;BME280;2713;42.680;23.310;2023-05-09T09:00:41;95406.78;;;16.75;63.06
5380;BME280;2713;42.680;23.310;2023-05-09T09:03:08;95405.59;;;16.64;61.96
5380;BME280;2713;42.680;23.310;2023-05-09T09:05:36;95409.66;;;16.47;63.08
5380;BME280;2713;42.680;23.310;2023-05-09T09:08:05;95404.00;;;16.50;62.81
5380;BME280;2713;42.680;23.310;2023-05-09T09:10:33;95405.63;;;16.57;62.68
5380;BME280;2713;42.680;23.310;2023-05-09T09:13:03;95408.03;;;16.59;62.49
5380;BME280;2713;42.680;23.310;2023-05-09T09:15:35;95403.94;;;16.69;62.13
5380;BME280;2713;42.680;23.310;2023-05-09T09:18:05;95401.13;;;16.64;62.31
5380;BME280;2713;42.680;23.310;2023-05-09T09:20:40;95402.16;;;16.63;61.78
5380;BME280;2713;42.680;23.310;2023-05-09T09:23:08;95408.00;;;16.65;61.63
5380;BME280;2713;42.680;23.310;2023-05-09T09:25:36;95408.44;;;16.49;62.09
5380;BME280;2713;42.680;23.310;2023-05-09T09:28:05;95404.41;;;16.53;62.04
5380;BME280;2713;42.680;23.310;2023-05-09T09:30:32;95403.56;;;16.66;61.20
5380;BME280;2713;42.680;23.310;2023-05-09T09:32:59;95414.25;;;16.64;61.05
5380;BME280;2713;42.680;23.310;2023-05-09T09:35:28;95408.03;;;16.52;61.46
5380;BME280;2713;42.680;23.310;2023-05-09T09:37:58;95407.75;;;15.96;62.98
5380;BME280;2713;42.680;23.310;2023-05-09T09:40:25;95415.00;;;16.01;64.11
5380;BME280;2713;42.680;23.310;2023-05-09T09:42:52;95401.28;;;15.86;64.86
5380;BME280;2713;42.680;23.310;2023-05-09T09:45:20;95402.50;;;15.83;65.43
5380;BME280;2713;42.680;23.310;2023-05-09T09:47:48;95401.31;;;15.72;65.74
5380;BME280;2713;42.680;23.310;2023-05-09T09:50:17;95405.94;;;15.84;66.41
5380;BME280;2713;42.680;23.310;2023-05-09T09:52:51;95409.97;;;15.80;66.63
5380;BME280;2713;42.680;23.310;2023-05-09T09:55:21;95413.59;;;15.52;67.68
5380;BME280;2713;42.680;23.310;2023-05-09T09:57:49;95408.91;;;15.41;67.26
5380;BME280;2713;42.680;23.310;2023-05-09T10:00:18;95408.38;;;15.52;67.13
5380;BME280;2713;42.680;23.310;2023-05-09T10:02:47;95405.13;;;15.37;68.38
5380;BME280;2713;42.680;23.310;2023-05-09T10:05:19;95403.13;;;15.52;68.21
5380;BME280;2713;42.680;23.310;2023-05-09T10:07:49;95400.69;;;15.44;68.68
5380;BME280;2713;42.680;23.310;2023-05-09T10:10:17;95400.09;;;15.62;68.14
5380;BME280;2713;42.680;23.310;2023-05-09T10:12:44;95396.47;;;15.96;67.43
5380;BME280;2713;42.680;23.310;2023-05-09T10:15:15;95394.63;;;16.03;65.78
5380;BME280;2713;42.680;23.310;2023-05-09T10:17:43;95395.19;;;16.18;65.28
5380;BME280;2713;42.680;23.310;2023-05-09T10:20:11;95388.38;;;16.04;65.64
5380;BME280;2713;42.680;23.310;2023-05-09T10:22:39;95387.78;;;15.69;67.59
5380;BME280;2713;42.680;23.310;2023-05-09T10:25:10;95389.22;;;15.71;67.88
5380;BME280;2713;42.680;23.310;2023-05-09T10:27:44;95394.06;;;15.88;67.58
5380;BME280;2713;42.680;23.310;2023-05-09T10:30:15;95390.03;;;15.85;68.22
5380;BME280;2713;42.680;23.310;2023-05-09T10:32:47;95395.41;;;16.16;66.64
5380;BME280;2713;42.680;23.310;2023-05-09T10:35:29;95387.13;;;16.26;66.61
5380;BME280;2713;42.680;23.310;2023-05-09T10:37:56;95384.31;;;16.21;67.09
5380;BME280;2713;42.680;23.310;2023-05-09T10:40:23;95383.69;;;16.26;66.92
5380;BME280;2713;42.680;23.310;2023-05-09T10:42:51;95390.50;;;16.40;66.11
5380;BME280;2713;42.680;23.310;2023-05-09T10:45:19;95387.56;;;15.97;66.62
5380;BME280;2713;42.680;23.310;2023-05-09T10:47:48;95388.22;;;15.92;66.88
5380;BME280;2713;42.680;23.310;2023-05-09T10:50:16;95384.16;;;15.83;67.92
5380;BME280;2713;42.680;23.310;2023-05-09T10:53:07;95381.28;;;16.17;66.73
5380;BME280;2713;42.680;23.310;2023-05-09T10:55:47;95387.53;;;16.16;66.84
5380;BME280;2713;42.680;23.310;2023-05-09T10:58:18;95385.47;;;16.32;66.18
5380;BME280;2713;42.680;23.310;2023-05-09T11:00:46;95388.69;;;16.40;65.81
5380;BME280;2713;42.680;23.310;2023-05-09T11:03:13;95379.97;;;16.59;65.27
5380;BME280;2713;42.680;23.310;2023-05-09T11:05:42;95389.47;;;16.47;65.44
5380;BME280;2713;42.680;23.310;2023-05-09T11:08:20;95385.28;;;16.33;65.73
5380;BME280;2713;42.680;23.310;2023-05-09T11:10:48;95386.09;;;16.20;65.63
5380;BME280;2713;42.680;23.310;2023-05-09T11:13:20;95388.50;;;16.35;65.80
5380;BME280;2713;42.680;23.310;2023-05-09T11:16:08;95389.72;;;16.33;65.79
5380;BME280;2713;42.680;23.310;2023-05-09T11:18:49;95378.72;;;16.68;65.98
5380;BME280;2713;42.680;23.310;2023-05-09T11:21:16;95383.47;;;16.27;66.07
5380;BME280;2713;42.680;23.310;2023-05-09T11:23:47;95398.41;;;16.33;66.49
5380;BME280;2713;42.680;23.310;2023-05-09T11:26:14;95392.56;;;16.18;66.06
5380;BME280;2713;42.680;23.310;2023-05-09T11:28:51;95394.13;;;16.45;65.52
5380;BME280;2713;42.680;23.310;2023-05-09T11:31:18;95393.13;;;16.46;65.53
5380;BME280;2713;42.680;23.310;2023-05-09T11:33:49;95393.97;;;16.27;65.52
5380;BME280;2713;42.680;23.310;2023-05-09T11:36:27;95390.69;;;16.45;65.04
5380;BME280;2713;42.680;23.310;2023-05-09T11:39:03;95393.16;;;16.20;66.09
5380;BME280;2713;42.680;23.310;2023-05-09T11:41:31;95384.91;;;16.16;66.70
5380;BME280;2713;42.680;23.310;2023-05-09T11:44:16;95377.50;;;15.94;66.05
5380;BME280;2713;42.680;23.310;2023-05-09T11:46:44;95383.94;;;15.98;66.55
5380;BME280;2713;42.680;23.310;2023-05-09T11:49:11;95375.06;;;16.05;67.15
5380;BME280;2713;42.680;23.310;2023-05-09T11:51:38;95384.91;;;16.30;66.44
5380;BME280;2713;42.680;23.310;2023-05-09T11:54:07;95387.75;;;16.15;66.99
5380;BME280;2713;42.680;23.310;2023-05-09T11:56:37;95384.91;;;16.10;66.68
5380;BME280;2713;42.680;23.310;2023-05-09T11:59:06;95377.69;;;16.05;67.19
5380;BME280;2713;42.680;23.310;2023-05-09T12:01:34;95373.19;;;16.26;66.50
5380;BME280;2713;42.680;23.310;2023-05-09T12:04:01;95376.06;;;16.11;65.96
5380;BME280;2713;42.680;23.310;2023-05-09T12:06:28;95375.84;;;16.19;66.39
5380;BME280;2713;42.680;23.310;2023-05-09T12:08:55;95386.38;;;15.93;67.15
5380;BME280;2713;42.680;23.310;2023-05-09T12:11:24;95383.13;;;15.97;67.17
5380;BME280;2713;42.680;23.310;2023-05-09T12:13:51;95377.91;;;15.84;68.05
5380;BME280;2713;42.680;23.310;2023-05-09T12:16:19;95383.75;;;15.80;67.50
5380;BME280;2713;42.680;23.310;2023-05-09T12:18:48;95373.91;;;15.75;67.38
5380;BME280;2713;42.680;23.310;2023-05-09T12:21:15;95377.31;;;15.56;68.27
5380;BME280;2713;42.680;23.310;2023-05-09T12:23:42;95385.34;;;15.28;69.53
5380;BME280;2713;42.680;23.310;2023-05-09T12:26:10;95389.16;;;15.19;69.82
5380;BME280;2713;42.680;23.310;2023-05-09T12:28:39;95382.50;;;15.10;70.35
5380;BME280;2713;42.680;23.310;2023-05-09T12:31:07;95387.19;;;15.41;69.45
5380;BME280;2713;42.680;23.310;2023-05-09T12:33:36;95379.69;;;15.38;69.46
5380;BME280;2713;42.680;23.310;2023-05-09T12:36:05;95371.44;;;15.21;69.34
5380;BME280;2713;42.680;23.310;2023-05-09T12:38:32;95377.47;;;15.41;69.26
5380;BME280;2713;42.680;23.310;2023-05-09T12:41:00;95378.09;;;15.43;69.62
5380;BME280;2713;42.680;23.310;2023-05-09T12:43:29;95385.47;;;14.94;70.75
5380;BME280;2713;42.680;23.310;2023-05-09T12:45:58;95374.38;;;14.72;71.71
5380;BME280;2713;42.680;23.310;2023-05-09T12:48:27;95379.31;;;14.47;72.59
5380;BME280;2713;42.680;23.310;2023-05-09T12:51:04;95364.16;;;14.36;72.95
5380;BME280;2713;42.680;23.310;2023-05-09T12:53:50;95353.38;;;14.18;73.52
5380;BME280;2713;42.680;23.310;2023-05-09T12:56:17;95374.69;;;14.15;73.96
5380;BME280;2713;42.680;23.310;2023-05-09T12:58:48;95354.91;;;13.99;75.58
5380;BME280;2713;42.680;23.310;2023-05-09T13:01:18;95354.63;;;13.88;76.13
5380;BME280;2713;42.680;23.310;2023-05-09T13:03:50;95352.09;;;14.01;76.08
5380;BME280;2713;42.680;23.310;2023-05-09T13:06:16;95356.84;;;14.25;75.34
5380;BME280;2713;42.680;23.310;2023-05-09T13:08:55;95354.47;;;14.30;75.07
5380;BME280;2713;42.680;23.310;2023-05-09T13:11:22;95366.34;;;13.98;76.09
5380;BME280;2713;42.680;23.310;2023-05-09T13:13:50;95347.56;;;14.22;75.58
5380;BME280;2713;42.680;23.310;2023-05-09T13:16:18;95361.84;;;14.20;75.22
5380;BME280;2713;42.680;23.310;2023-05-09T13:18:48;95352.47;;;13.98;75.85
5380;BME280;2713;42.680;23.310;2023-05-09T13:21:15;95352.06;;;13.94;76.92